createdAt,value
2017-07-03T00:00:37.644Z,2.17
2017-07-03T00:03:06.744Z,2.40
2017-07-03T00:05:35.065Z,2.57
2017-07-03T00:08:03.403Z,2.67
2017-07-03T00:10:32.476Z,2.47
2017-07-03T00:13:01.572Z,2.17
2017-07-03T00:15:29.886Z,1.80
2017-07-03T00:17:58.579Z,2.17
2017-07-03T00:20:27.672Z,2.77
2017-07-03T00:22:56.377Z,2.87
2017-07-03T00:25:24.697Z,2.60
2017-07-03T00:27:53.005Z,2.80
2017-07-03T00:30:21.342Z,4.50
2017-07-03T00:32:49.689Z,2.40
2017-07-03T00:35:18.012Z,2.17
2017-07-03T00:37:46.704Z,2.83
2017-07-03T00:40:15.559Z,3.60
2017-07-03T00:42:43.884Z,3.33
2017-07-03T00:45:12.188Z,2.87
2017-07-03T00:47:40.511Z,3.00
2017-07-03T00:50:08.819Z,2.90
2017-07-03T00:52:37.165Z,2.97
2017-07-03T00:55:05.511Z,2.80
2017-07-03T00:57:33.840Z,2.43
2017-07-03T01:00:02.903Z,3.13
2017-07-03T01:02:31.229Z,2.97
2017-07-03T01:04:59.547Z,5.00
2017-07-03T01:07:27.856Z,3.17
2017-07-03T01:09:56.209Z,3.30
2017-07-03T01:12:24.682Z,3.37
2017-07-03T01:14:52.992Z,2.93
2017-07-03T01:17:22.052Z,3.50
2017-07-03T01:19:50.774Z,3.30
2017-07-03T01:22:19.126Z,3.00
2017-07-03T01:24:47.456Z,3.10
2017-07-03T01:27:16.545Z,3.27
2017-07-03T01:29:45.608Z,2.87
2017-07-03T01:32:14.732Z,2.60
2017-07-03T01:34:43.027Z,3.30
2017-07-03T01:37:11.737Z,2.80
2017-07-03T01:39:40.182Z,2.93
2017-07-03T01:42:08.494Z,2.60
2017-07-03T01:44:36.848Z,3.20
2017-07-03T01:47:05.921Z,2.77
2017-07-03T01:49:34.239Z,3.40
2017-07-03T01:52:03.141Z,3.60
2017-07-03T01:54:31.637Z,2.73
2017-07-03T01:57:00.934Z,3.13
2017-07-03T01:59:29.269Z,3.00
2017-07-03T02:01:57.563Z,2.67
2017-07-03T02:04:25.879Z,3.10
2017-07-03T02:06:54.217Z,3.30
2017-07-03T02:09:22.509Z,2.67
2017-07-03T02:11:51.566Z,2.67
2017-07-03T02:14:19.873Z,2.30
2017-07-03T02:16:48.181Z,4.20
2017-07-03T02:19:16.494Z,3.27
2017-07-03T02:21:45.558Z,2.83
2017-07-03T02:24:13.869Z,2.80
2017-07-03T02:26:42.967Z,3.27
2017-07-03T02:29:11.657Z,2.47
2017-07-03T02:31:40.371Z,3.40
2017-07-03T02:34:08.689Z,3.17
2017-07-03T02:36:37.774Z,3.10
2017-07-03T02:39:06.506Z,2.90
2017-07-03T02:41:36.340Z,2.83
2017-07-03T02:44:06.212Z,3.00
2017-07-03T02:46:35.517Z,2.30
2017-07-03T02:49:03.912Z,2.77
2017-07-03T02:51:32.633Z,2.20
2017-07-03T02:54:01.796Z,2.93
2017-07-03T02:56:30.513Z,3.87
2017-07-03T02:58:58.816Z,2.50
2017-07-03T03:01:27.145Z,3.47
2017-07-03T03:03:55.911Z,3.10
2017-07-03T03:06:24.197Z,2.60
2017-07-03T03:08:52.531Z,2.53
2017-07-03T03:11:21.679Z,3.03
2017-07-03T03:13:50.420Z,2.77
2017-07-03T03:16:18.730Z,3.23
2017-07-03T03:18:47.307Z,2.27
2017-07-03T03:21:15.593Z,3.67
2017-07-03T03:23:43.983Z,3.13
2017-07-03T03:26:12.307Z,3.30
2017-07-03T03:28:40.623Z,2.80
2017-07-03T03:31:09.331Z,3.03
2017-07-03T03:33:37.646Z,2.77
2017-07-03T03:36:06.327Z,2.80
2017-07-03T03:38:34.642Z,2.60
2017-07-03T03:41:02.972Z,3.70
2017-07-03T03:43:31.267Z,3.17
2017-07-03T03:45:59.582Z,2.60
2017-07-03T03:48:28.656Z,3.70
2017-07-03T03:50:56.992Z,2.97
2017-07-03T03:53:25.296Z,3.03
2017-07-03T03:55:53.649Z,3.13
2017-07-03T03:58:21.963Z,2.60
2017-07-03T04:00:50.323Z,2.77
2017-07-03T04:03:18.610Z,3.13
2017-07-03T04:05:46.938Z,2.93
2017-07-03T04:08:15.251Z,2.93
2017-07-03T04:10:43.585Z,2.67
2017-07-03T04:13:11.896Z,3.70
2017-07-03T04:15:40.224Z,4.53
2017-07-03T04:18:08.528Z,2.97
2017-07-03T04:20:36.860Z,2.70
2017-07-03T04:23:05.169Z,2.93
2017-07-03T04:25:33.505Z,3.33
2017-07-03T04:28:03.316Z,4.33
2017-07-03T04:30:31.659Z,3.97
2017-07-03T04:32:59.964Z,3.83
2017-07-03T04:35:28.304Z,3.30
2017-07-03T04:37:56.607Z,3.00
2017-07-03T04:40:24.904Z,2.97
2017-07-03T04:42:53.243Z,2.53
2017-07-03T04:45:21.649Z,3.30
2017-07-03T04:47:50.078Z,2.90
2017-07-03T04:50:18.441Z,2.90
2017-07-03T04:52:47.592Z,3.00
2017-07-03T04:55:15.916Z,3.07
2017-07-03T04:57:44.220Z,2.80
2017-07-03T05:00:12.531Z,2.80
2017-07-03T05:02:40.859Z,2.67
2017-07-03T05:05:09.182Z,2.70
2017-07-03T05:07:37.488Z,2.90
2017-07-03T05:10:05.811Z,2.50
2017-07-03T05:12:34.136Z,3.07
2017-07-03T05:15:03.307Z,2.70
2017-07-03T05:17:31.654Z,3.30
2017-07-03T05:19:59.966Z,2.70
2017-07-03T05:22:28.264Z,2.27
2017-07-03T05:24:56.564Z,2.77
2017-07-03T05:27:24.869Z,2.83
2017-07-03T05:29:53.271Z,2.60
2017-07-03T05:32:21.628Z,3.33
2017-07-03T05:34:49.970Z,3.53
2017-07-03T05:37:18.263Z,2.80
2017-07-03T05:39:46.568Z,3.00
2017-07-03T05:42:14.879Z,2.97
2017-07-03T05:44:43.980Z,2.93
2017-07-03T05:47:12.294Z,3.40
2017-07-03T05:49:40.598Z,2.87
2017-07-03T05:52:08.996Z,2.70
2017-07-03T05:54:37.277Z,2.93
2017-07-03T05:57:05.614Z,3.20
2017-07-03T05:59:33.912Z,3.80
2017-07-03T06:02:02.277Z,3.20
2017-07-03T06:04:30.727Z,2.60
2017-07-03T06:06:59.616Z,2.60
2017-07-03T06:09:28.578Z,2.93
2017-07-03T06:11:56.878Z,2.77
2017-07-03T06:14:25.235Z,2.70
2017-07-03T06:16:53.541Z,2.20
2017-07-03T06:19:21.890Z,3.20
2017-07-03T06:21:50.197Z,3.13
2017-07-03T06:24:18.539Z,3.03
2017-07-03T06:26:46.875Z,2.57
2017-07-03T06:29:15.582Z,2.40
2017-07-03T06:31:44.683Z,2.53
2017-07-03T06:34:12.993Z,2.87
2017-07-03T06:36:41.302Z,3.03
2017-07-03T06:39:09.611Z,2.70
2017-07-03T06:41:37.956Z,2.73
2017-07-03T06:44:06.275Z,2.80
2017-07-03T06:46:34.605Z,3.20
2017-07-03T06:49:02.936Z,4.43
2017-07-03T06:51:31.329Z,2.77
2017-07-03T06:53:59.665Z,3.00
2017-07-03T06:56:27.963Z,2.60
2017-07-03T06:58:56.277Z,2.37
2017-07-03T07:01:24.600Z,2.87
2017-07-03T07:03:52.966Z,2.70
2017-07-03T07:06:21.275Z,2.00
2017-07-03T07:08:49.596Z,2.20
2017-07-03T07:11:17.984Z,2.20
2017-07-03T07:13:46.313Z,2.20
2017-07-03T07:16:14.618Z,2.20
2017-07-03T07:18:42.965Z,1.80
2017-07-03T07:21:11.305Z,1.60
2017-07-03T07:23:40.384Z,1.40
2017-07-03T07:26:08.682Z,1.53
2017-07-03T07:28:37.765Z,1.87
2017-07-03T07:31:06.077Z,1.40
2017-07-03T07:33:34.396Z,1.60
2017-07-03T07:36:02.712Z,1.80
2017-07-03T07:38:31.803Z,3.17
2017-07-03T07:41:00.863Z,1.60
2017-07-03T07:43:29.248Z,1.67
2017-07-03T07:45:57.539Z,1.33
2017-07-03T07:48:25.903Z,1.30
2017-07-03T07:50:54.178Z,1.23
2017-07-03T07:53:22.482Z,1.67
2017-07-03T07:55:51.534Z,1.23
2017-07-03T07:58:19.866Z,1.10
2017-07-03T08:00:48.195Z,1.20
2017-07-03T08:03:16.511Z,1.30
2017-07-03T08:05:44.815Z,1.90
2017-07-03T08:08:13.134Z,1.13
2017-07-03T08:10:41.469Z,1.53
2017-07-03T08:13:09.800Z,1.07
2017-07-03T08:15:38.192Z,1.07
2017-07-03T08:18:07.256Z,1.70
2017-07-03T08:20:35.794Z,1.50
2017-07-03T08:23:04.087Z,1.00
2017-07-03T08:25:32.408Z,1.93
2017-07-03T08:28:01.476Z,2.40
2017-07-03T08:30:29.803Z,1.50
2017-07-03T08:32:58.102Z,1.37
2017-07-03T08:35:26.410Z,1.87
2017-07-03T08:37:54.718Z,1.37
2017-07-03T08:40:23.000Z,1.40
2017-07-03T08:42:51.323Z,2.17
2017-07-03T08:45:19.634Z,1.10
2017-07-03T08:47:47.939Z,1.00
2017-07-03T08:50:16.283Z,1.13
2017-07-03T08:52:44.596Z,1.00
2017-07-03T08:55:12.946Z,1.37
2017-07-03T08:57:42.039Z,1.62
2017-07-03T09:00:11.133Z,1.60
2017-07-03T09:02:40.207Z,1.10
2017-07-03T09:05:08.546Z,1.50
2017-07-03T09:07:36.883Z,1.50
2017-07-03T09:10:05.975Z,2.07
2017-07-03T09:12:34.663Z,1.70
2017-07-03T09:15:03.773Z,1.80
2017-07-03T09:17:32.066Z,1.83
2017-07-03T09:20:00.362Z,1.70
2017-07-03T09:22:28.696Z,1.50
2017-07-03T09:24:57.004Z,1.60
2017-07-03T09:27:25.389Z,1.43
2017-07-03T09:29:53.685Z,1.60
2017-07-03T09:32:22.009Z,1.20
2017-07-03T09:34:50.318Z,1.80
2017-07-03T09:37:18.657Z,1.80
2017-07-03T09:39:47.002Z,1.87
2017-07-03T09:42:15.324Z,1.97
2017-07-03T09:44:43.639Z,1.80
2017-07-03T09:47:11.957Z,1.80
2017-07-03T09:49:41.055Z,1.50
2017-07-03T09:52:10.408Z,1.57
2017-07-03T09:54:38.699Z,1.50
2017-07-03T09:57:07.025Z,1.77
2017-07-03T09:59:35.345Z,1.33
2017-07-03T10:02:03.676Z,2.13
2017-07-03T10:04:32.006Z,1.73
2017-07-03T10:07:00.337Z,1.70
2017-07-03T10:09:28.647Z,2.20
2017-07-03T10:11:56.995Z,1.83
2017-07-03T10:14:25.335Z,1.30
2017-07-03T10:16:54.396Z,1.93
2017-07-03T10:19:23.104Z,1.83
2017-07-03T10:21:52.201Z,1.97
2017-07-03T10:24:20.799Z,1.63
2017-07-03T10:26:49.105Z,1.67
2017-07-03T10:29:17.462Z,1.50
2017-07-03T10:31:45.765Z,1.50
2017-07-03T10:34:14.059Z,1.40
2017-07-03T10:36:43.922Z,1.67
2017-07-03T10:39:12.232Z,1.50
2017-07-03T10:41:40.530Z,1.80
2017-07-03T10:44:08.907Z,1.60
2017-07-03T10:46:37.204Z,2.10
2017-07-03T10:49:05.561Z,1.60
2017-07-03T10:51:34.520Z,1.80
2017-07-03T10:54:03.573Z,1.90
2017-07-03T10:56:32.794Z,2.57
2017-07-03T10:59:01.103Z,1.50
2017-07-03T11:01:29.418Z,1.60
2017-07-03T11:03:58.591Z,2.03
2017-07-03T11:06:26.894Z,1.47
2017-07-03T11:08:55.964Z,1.50
2017-07-03T11:11:24.279Z,1.97
2017-07-03T11:13:52.586Z,1.83
2017-07-03T11:16:20.917Z,1.90
2017-07-03T11:18:50.091Z,2.07
2017-07-03T11:21:18.400Z,2.50
2017-07-03T11:23:47.482Z,1.50
2017-07-03T11:26:16.582Z,1.50
2017-07-03T11:28:45.670Z,1.90
2017-07-03T11:31:14.023Z,1.70
2017-07-03T11:33:42.337Z,2.03
2017-07-03T11:36:11.598Z,1.60
2017-07-03T11:38:39.961Z,1.23
2017-07-03T11:41:08.255Z,2.20
2017-07-03T11:43:36.573Z,1.47
2017-07-03T11:46:04.894Z,1.60
2017-07-03T11:48:33.236Z,1.60
2017-07-03T11:51:01.597Z,2.40
2017-07-03T11:53:29.928Z,1.40
2017-07-03T11:55:58.215Z,1.60
2017-07-03T11:58:26.558Z,1.57
2017-07-03T12:00:54.868Z,1.60
2017-07-03T12:03:23.229Z,1.70
2017-07-03T12:05:51.563Z,1.70
2017-07-03T12:08:19.864Z,1.77
2017-07-03T12:10:48.187Z,1.27
2017-07-03T12:13:16.470Z,1.70
2017-07-03T12:15:45.559Z,1.97
2017-07-03T12:18:13.860Z,1.67
2017-07-03T12:20:42.202Z,1.83
2017-07-03T12:23:10.529Z,1.87
2017-07-03T12:25:38.825Z,1.97
2017-07-03T12:28:07.156Z,1.80
2017-07-03T12:30:36.217Z,2.17
2017-07-03T12:33:04.522Z,1.73
2017-07-03T12:35:33.622Z,1.50
2017-07-03T12:38:01.947Z,1.90
2017-07-03T12:40:30.250Z,1.67
2017-07-03T12:42:58.579Z,1.93
2017-07-03T12:45:26.935Z,1.77
2017-07-03T12:47:55.297Z,1.90
2017-07-03T12:50:23.601Z,2.50
2017-07-03T12:52:51.963Z,2.50
2017-07-03T12:55:21.057Z,2.70
2017-07-03T12:57:49.362Z,1.93
2017-07-03T13:00:17.752Z,1.77
2017-07-03T13:02:46.086Z,3.13
2017-07-03T13:05:15.182Z,2.27
2017-07-03T13:07:44.259Z,2.23
2017-07-03T13:10:12.627Z,2.00
2017-07-03T13:12:41.006Z,2.13
2017-07-03T13:15:09.371Z,2.07
2017-07-03T13:17:37.675Z,2.53
2017-07-03T13:20:05.955Z,2.37
2017-07-03T13:22:35.040Z,2.57
2017-07-03T13:25:04.103Z,2.47
2017-07-03T13:27:32.399Z,2.17
2017-07-03T13:30:00.737Z,2.40
2017-07-03T13:32:29.054Z,2.20
2017-07-03T13:34:57.356Z,2.60
2017-07-03T13:37:25.671Z,2.27
2017-07-03T13:39:54.013Z,2.73
2017-07-03T13:42:22.304Z,2.00
2017-07-03T13:44:50.851Z,2.20
2017-07-03T13:47:19.934Z,2.10
2017-07-03T13:49:48.228Z,2.60
2017-07-03T13:52:17.319Z,2.43
2017-07-03T13:54:46.414Z,2.67
2017-07-03T13:57:15.474Z,2.07
2017-07-03T13:59:43.809Z,2.43
2017-07-03T14:02:12.121Z,2.40
2017-07-03T14:04:40.430Z,2.23
2017-07-03T14:07:10.336Z,2.10
2017-07-03T14:09:38.679Z,2.30
2017-07-03T14:12:06.964Z,2.20
2017-07-03T14:14:35.308Z,2.37
2017-07-03T14:17:03.595Z,2.40
2017-07-03T14:19:31.923Z,2.43
2017-07-03T14:22:00.241Z,2.20
2017-07-03T14:24:28.539Z,2.00
2017-07-03T14:26:56.888Z,2.30
2017-07-03T14:29:25.193Z,2.33
2017-07-03T14:31:54.711Z,2.40
2017-07-03T14:34:23.819Z,2.20
2017-07-03T14:36:52.117Z,2.60
2017-07-03T14:39:21.200Z,2.73
2017-07-03T14:41:49.514Z,2.10
2017-07-03T14:44:17.850Z,2.33
2017-07-03T14:46:46.153Z,2.40
2017-07-03T14:49:14.477Z,3.20
2017-07-03T14:51:42.779Z,2.57
2017-07-03T14:54:11.107Z,2.87
2017-07-03T14:56:39.427Z,3.10
2017-07-03T14:59:07.776Z,2.67
2017-07-03T15:01:36.099Z,2.60
2017-07-03T15:04:05.227Z,2.90
2017-07-03T15:06:33.537Z,3.23
2017-07-03T15:09:02.037Z,4.83
2017-07-03T15:11:30.346Z,4.50
2017-07-03T15:13:58.660Z,5.17
2017-07-03T15:16:26.974Z,4.10
2017-07-03T15:18:56.053Z,3.20
2017-07-03T15:21:24.349Z,4.20
2017-07-03T15:23:53.436Z,4.10
2017-07-03T15:26:21.747Z,4.47
2017-07-03T15:28:50.044Z,4.20
2017-07-03T15:31:18.386Z,4.00
2017-07-03T15:33:47.460Z,4.20
2017-07-03T15:36:15.757Z,4.00
2017-07-03T15:38:44.063Z,2.80
2017-07-03T15:41:12.390Z,1.83
2017-07-03T15:43:41.480Z,2.53
2017-07-03T15:46:10.600Z,3.00
2017-07-03T15:48:39.008Z,1.60
2017-07-03T15:51:07.319Z,1.50
2017-07-03T15:53:35.634Z,1.57
2017-07-03T15:56:03.958Z,1.57
2017-07-03T15:58:32.254Z,1.70
2017-07-03T16:01:00.557Z,1.83
2017-07-03T16:03:28.884Z,1.93
2017-07-03T16:05:57.207Z,1.80
2017-07-03T16:08:25.501Z,2.13
2017-07-03T16:10:53.891Z,2.20
2017-07-03T16:13:22.206Z,2.30
2017-07-03T16:15:50.558Z,2.03
2017-07-03T16:18:18.856Z,2.40
2017-07-03T16:20:47.156Z,2.23
2017-07-03T16:23:16.300Z,2.60
2017-07-03T16:25:44.616Z,2.50
2017-07-03T16:28:12.912Z,2.50
2017-07-03T16:30:41.976Z,2.87
2017-07-03T16:33:10.380Z,3.17
2017-07-03T16:35:38.769Z,3.07
2017-07-03T16:38:07.096Z,3.40
2017-07-03T16:40:35.410Z,2.60
2017-07-03T16:43:04.514Z,3.50
2017-07-03T16:45:32.842Z,2.87
2017-07-03T16:48:04.212Z,2.80
2017-07-03T16:50:32.545Z,3.30
2017-07-03T16:53:00.867Z,3.10
2017-07-03T16:55:34.905Z,2.90
2017-07-03T16:58:03.211Z,3.57
2017-07-03T17:00:31.543Z,2.60
2017-07-03T17:03:00.649Z,3.33
2017-07-03T17:05:29.497Z,2.70
2017-07-03T17:07:57.893Z,3.47
2017-07-03T17:10:26.214Z,3.13
2017-07-03T17:12:54.547Z,3.03
2017-07-03T17:15:22.857Z,3.97
2017-07-03T17:17:51.228Z,3.67
2017-07-03T17:20:19.825Z,4.50
2017-07-03T17:22:48.136Z,3.47
2017-07-03T17:25:16.464Z,3.60
2017-07-03T17:27:44.795Z,3.10
2017-07-03T17:30:13.128Z,3.40
2017-07-03T17:32:41.572Z,3.17
2017-07-03T17:35:09.863Z,3.50
2017-07-03T17:37:38.208Z,3.37
2017-07-03T17:40:06.539Z,3.30
2017-07-03T17:42:35.232Z,3.50
2017-07-03T17:45:03.561Z,3.50
2017-07-03T17:47:32.627Z,3.90
2017-07-03T17:50:00.955Z,3.27
2017-07-03T17:52:29.271Z,3.00
2017-07-03T17:54:57.601Z,3.70
2017-07-03T17:57:26.671Z,3.67
2017-07-03T17:59:54.995Z,3.57
2017-07-03T18:02:23.311Z,3.00
2017-07-03T18:04:51.913Z,2.80
2017-07-03T18:07:20.977Z,3.40
2017-07-03T18:09:49.316Z,4.00
2017-07-03T18:12:17.658Z,3.17
2017-07-03T18:14:45.997Z,3.67
2017-07-03T18:17:14.750Z,3.80
2017-07-03T18:19:43.069Z,3.43
2017-07-03T18:22:11.564Z,2.90
2017-07-03T18:24:39.901Z,3.03
2017-07-03T18:27:08.857Z,3.07
2017-07-03T18:29:37.196Z,2.93
2017-07-03T18:32:05.497Z,3.33
2017-07-03T18:34:33.837Z,3.03
2017-07-03T18:37:02.148Z,2.93
2017-07-03T18:39:30.448Z,3.20
2017-07-03T18:41:59.530Z,2.97
2017-07-03T18:44:27.889Z,3.77
2017-07-03T18:46:56.187Z,2.97
2017-07-03T18:49:24.486Z,3.17
2017-07-03T18:51:52.828Z,3.67
2017-07-03T18:54:21.149Z,3.57
2017-07-03T18:56:49.469Z,3.77
2017-07-03T18:59:17.813Z,3.00
2017-07-03T19:01:46.573Z,4.10
2017-07-03T19:04:14.872Z,3.90
2017-07-03T19:06:43.240Z,4.20
2017-07-03T19:09:11.547Z,3.90
2017-07-03T19:11:40.204Z,4.17
2017-07-03T19:14:08.517Z,5.13
2017-07-03T19:16:37.045Z,4.00
2017-07-03T19:19:05.350Z,4.23
2017-07-03T19:21:33.631Z,3.60
2017-07-03T19:24:01.987Z,3.93
2017-07-03T19:26:30.309Z,4.80
2017-07-03T19:28:58.708Z,3.57
2017-07-03T19:31:27.004Z,4.10
2017-07-03T19:33:56.081Z,4.00
2017-07-03T19:36:24.473Z,4.17
2017-07-03T19:38:53.547Z,4.30
2017-07-03T19:41:21.902Z,4.20
2017-07-03T19:43:50.219Z,4.33
2017-07-03T19:46:19.305Z,5.20
2017-07-03T19:48:47.659Z,4.55
2017-07-03T19:51:16.088Z,4.30
2017-07-03T19:53:44.444Z,4.40
2017-07-03T19:56:13.598Z,4.60
2017-07-03T19:58:43.134Z,5.53
2017-07-03T20:01:12.207Z,4.63
2017-07-03T20:03:40.533Z,4.60
2017-07-03T20:06:08.828Z,5.53
2017-07-03T20:08:37.235Z,5.20
2017-07-03T20:11:05.551Z,5.60
2017-07-03T20:13:33.851Z,5.30
2017-07-03T20:16:02.191Z,5.33
2017-07-03T20:18:30.524Z,5.20
2017-07-03T20:20:58.821Z,5.50
2017-07-03T20:23:27.125Z,5.00
2017-07-03T20:25:56.221Z,5.50
2017-07-03T20:28:25.325Z,5.90
2017-07-03T20:30:54.409Z,5.57
2017-07-03T20:33:23.580Z,5.43
2017-07-03T20:35:51.909Z,5.60
2017-07-03T20:38:20.252Z,5.07
2017-07-03T20:40:49.323Z,5.57
2017-07-03T20:43:17.631Z,5.60
2017-07-03T20:45:46.732Z,5.53
2017-07-03T20:48:15.053Z,5.70
2017-07-03T20:50:43.384Z,5.13
2017-07-03T20:53:12.543Z,6.67
2017-07-03T20:55:40.846Z,5.67
2017-07-03T20:58:09.183Z,6.40
2017-07-03T21:00:37.575Z,6.93
2017-07-03T21:03:05.976Z,6.03
2017-07-03T21:05:35.049Z,5.77
2017-07-03T21:08:03.355Z,5.17
2017-07-03T21:10:31.693Z,5.10
2017-07-03T21:13:00.000Z,6.07
2017-07-03T21:15:31.566Z,5.50
2017-07-03T21:18:00.621Z,5.97
2017-07-03T21:20:28.928Z,5.23
2017-07-03T21:22:58.027Z,5.13
2017-07-03T21:25:27.099Z,5.90
2017-07-03T21:27:56.222Z,6.00
2017-07-03T21:30:25.287Z,5.97
2017-07-03T21:32:53.752Z,5.83
2017-07-03T21:35:22.051Z,5.47
2017-07-03T21:37:51.118Z,6.80
2017-07-03T21:40:19.478Z,8.20
2017-07-03T21:42:47.822Z,6.03
2017-07-03T21:45:16.223Z,5.67
2017-07-03T21:47:44.542Z,6.23
2017-07-03T21:50:12.847Z,5.60
2017-07-03T21:52:41.937Z,6.10
2017-07-03T21:55:10.996Z,6.20
2017-07-03T21:57:39.343Z,6.97
2017-07-03T22:00:07.688Z,7.33
2017-07-03T22:02:36.768Z,6.73
2017-07-03T22:05:05.113Z,6.57
2017-07-03T22:07:33.421Z,7.80
2017-07-03T22:10:01.796Z,7.60
2017-07-03T22:12:30.189Z,7.10
2017-07-03T22:14:59.303Z,6.87
2017-07-03T22:17:27.628Z,6.60
2017-07-03T22:19:56.164Z,6.87
2017-07-03T22:22:24.504Z,6.37
2017-07-03T22:24:52.795Z,7.13
2017-07-03T22:27:21.132Z,6.27
2017-07-03T22:29:49.437Z,7.03
2017-07-03T22:32:17.771Z,8.70
2017-07-03T22:34:46.060Z,6.87
2017-07-03T22:37:14.406Z,6.60
2017-07-03T22:39:42.804Z,6.40
2017-07-03T22:42:11.107Z,7.00
2017-07-03T22:44:39.442Z,6.40
2017-07-03T22:47:07.795Z,6.70
2017-07-03T22:49:36.157Z,7.17
2017-07-03T22:52:05.218Z,6.50
2017-07-03T22:54:33.592Z,6.30
2017-07-03T22:57:01.922Z,6.20
2017-07-03T22:59:30.354Z,6.00
2017-07-03T23:01:58.635Z,6.13
2017-07-03T23:04:27.002Z,6.40
2017-07-03T23:06:55.282Z,6.83
2017-07-03T23:09:23.624Z,7.70
2017-07-03T23:11:51.978Z,6.60
2017-07-03T23:14:20.305Z,6.47
2017-07-03T23:16:48.604Z,5.60
2017-07-03T23:19:16.925Z,6.43
2017-07-03T23:21:45.248Z,6.53
2017-07-03T23:24:13.575Z,8.00
2017-07-03T23:26:41.894Z,6.77
2017-07-03T23:29:10.668Z,6.70
2017-07-03T23:31:38.965Z,6.17
2017-07-03T23:34:07.303Z,6.70
2017-07-03T23:36:35.616Z,7.63
2017-07-03T23:39:04.714Z,7.53
2017-07-03T23:41:33.026Z,7.63
2017-07-03T23:44:01.357Z,8.40
2017-07-03T23:46:30.482Z,7.13
2017-07-03T23:48:59.547Z,7.43
2017-07-03T23:51:27.872Z,7.67
2017-07-03T23:53:57.357Z,7.87
2017-07-03T23:56:26.450Z,7.80
2017-07-03T23:58:54.795Z,8.60
